sensor_id;sensor_type;location;lat;lon;timestamp;P1;durP1;ratioP1;P2;durP2;ratioP2
78916;SDS011;68315;48.608;11.436;2024-03-29T00:00:23;2.83;;;1.30;;
78916;SDS011;68315;48.608;11.436;2024-03-29T00:02:49;1.98;;;1.20;;
78916;SDS011;68315;48.608;11.436;2024-03-29T00:05:14;1.77;;;1.23;;
78916;SDS011;68315;48.608;11.436;2024-03-29T00:07:39;4.28;;;1.60;;
78916;SDS011;68315;48.608;11.436;2024-03-29T00:10:04;3.28;;;1.40;;
78916;SDS011;68315;48.608;11.436;2024-03-29T00:12:30;2.35;;;1.50;;
78916;SDS011;68315;48.608;11.436;2024-03-29T00:14:55;1.75;;;1.60;;
78916;SDS011;68315;48.608;11.436;2024-03-29T00:17:21;2.35;;;1.90;;
78916;SDS011;68315;48.608;11.436;2024-03-29T00:19:46;2.30;;;2.03;;
78916;SDS011;68315;48.608;11.436;2024-03-29T00:22:12;2.22;;;1.80;;
78916;SDS011;68315;48.608;11.436;2024-03-29T00:24:37;2.28;;;1.60;;
78916;SDS011;68315;48.608;11.436;2024-03-29T00:27:02;2.38;;;1.45;;
78916;SDS011;68315;48.608;11.436;2024-03-29T00:29:27;2.20;;;1.70;;
78916;SDS011;68315;48.608;11.436;2024-03-29T00:31:53;4.00;;;1.80;;
78916;SDS011;68315;48.608;11.436;2024-03-29T00:34:18;1.85;;;1.70;;
78916;SDS011;68315;48.608;11.436;2024-03-29T00:36:43;2.30;;;1.45;;
78916;SDS011;68315;48.608;11.436;2024-03-29T00:39:08;2.63;;;1.70;;
78916;SDS011;68315;48.608;11.436;2024-03-29T00:41:36;2.10;;;1.50;;
78916;SDS011;68315;48.608;11.436;2024-03-29T00:44:01;2.28;;;1.70;;
78916;SDS011;68315;48.608;11.436;2024-03-29T00:46:27;2.25;;;1.63;;
78916;SDS011;68315;48.608;11.436;2024-03-29T00:48:53;4.55;;;1.80;;
78916;SDS011;68315;48.608;11.436;2024-03-29T00:51:18;3.55;;;2.00;;
78916;SDS011;68315;48.608;11.436;2024-03-29T00:53:43;2.70;;;1.90;;
78916;SDS011;68315;48.608;11.436;2024-03-29T00:56:08;2.28;;;1.80;;
78916;SDS011;68315;48.608;11.436;2024-03-29T00:58:33;2.47;;;1.70;;
78916;SDS011;68315;48.608;11.436;2024-03-29T01:00:59;2.60;;;1.67;;
78916;SDS011;68315;48.608;11.436;2024-03-29T01:03:24;1.92;;;1.60;;
78916;SDS011;68315;48.608;11.436;2024-03-29T01:05:49;2.95;;;1.80;;
78916;SDS011;68315;48.608;11.436;2024-03-29T01:08:14;1.95;;;1.40;;
78916;SDS011;68315;48.608;11.436;2024-03-29T01:10:40;3.03;;;1.90;;
78916;SDS011;68315;48.608;11.436;2024-03-29T01:13:05;2.28;;;1.95;;
78916;SDS011;68315;48.608;11.436;2024-03-29T01:15:30;1.70;;;1.60;;
78916;SDS011;68315;48.608;11.436;2024-03-29T01:17:56;1.77;;;1.45;;
78916;SDS011;68315;48.608;11.436;2024-03-29T01:20:21;1.88;;;1.50;;
78916;SDS011;68315;48.608;11.436;2024-03-29T01:22:46;1.83;;;1.58;;
78916;SDS011;68315;48.608;11.436;2024-03-29T01:25:11;1.40;;;1.25;;
78916;SDS011;68315;48.608;11.436;2024-03-29T01:27:38;1.30;;;1.20;;
78916;SDS011;68315;48.608;11.436;2024-03-29T01:30:04;1.50;;;1.30;;
78916;SDS011;68315;48.608;11.436;2024-03-29T01:32:29;1.27;;;1.10;;
78916;SDS011;68315;48.608;11.436;2024-03-29T01:34:54;1.52;;;1.40;;
78916;SDS011;68315;48.608;11.436;2024-03-29T01:37:20;1.88;;;1.40;;
78916;SDS011;68315;48.608;11.436;2024-03-29T01:39:45;2.78;;;1.10;;
78916;SDS011;68315;48.608;11.436;2024-03-29T01:42:10;1.42;;;1.25;;
78916;SDS011;68315;48.608;11.436;2024-03-29T01:44:36;1.23;;;1.15;;
78916;SDS011;68315;48.608;11.436;2024-03-29T01:47:01;1.40;;;1.05;;
78916;SDS011;68315;48.608;11.436;2024-03-29T01:49:27;1.20;;;1.10;;
78916;SDS011;68315;48.608;11.436;2024-03-29T01:51:55;2.28;;;1.00;;
78916;SDS011;68315;48.608;11.436;2024-03-29T01:54:20;1.23;;;1.00;;
78916;SDS011;68315;48.608;11.436;2024-03-29T01:56:46;1.50;;;1.00;;
78916;SDS011;68315;48.608;11.436;2024-03-29T01:59:14;1.00;;;0.90;;
78916;SDS011;68315;48.608;11.436;2024-03-29T02:01:40;1.30;;;1.00;;
78916;SDS011;68315;48.608;11.436;2024-03-29T02:04:06;1.27;;;0.75;;
78916;SDS011;68315;48.608;11.436;2024-03-29T02:06:32;1.13;;;0.85;;
78916;SDS011;68315;48.608;11.436;2024-03-29T02:08:57;1.00;;;0.90;;
78916;SDS011;68315;48.608;11.436;2024-03-29T02:11:23;1.25;;;0.90;;
78916;SDS011;68315;48.608;11.436;2024-03-29T02:13:49;0.80;;;0.80;;
78916;SDS011;68315;48.608;11.436;2024-03-29T02:16:15;0.90;;;0.90;;
78916;SDS011;68315;48.608;11.436;2024-03-29T02:18:40;1.35;;;1.00;;
78916;SDS011;68315;48.608;11.436;2024-03-29T02:21:06;1.20;;;0.90;;
78916;SDS011;68315;48.608;11.436;2024-03-29T02:23:32;1.10;;;0.80;;
78916;SDS011;68315;48.608;11.436;2024-03-29T02:26:00;1.15;;;1.00;;
78916;SDS011;68315;48.608;11.436;2024-03-29T02:28:25;1.58;;;0.90;;
78916;SDS011;68315;48.608;11.436;2024-03-29T02:30:51;1.00;;;0.85;;
78916;SDS011;68315;48.608;11.436;2024-03-29T02:33:16;1.23;;;1.10;;
78916;SDS011;68315;48.608;11.436;2024-03-29T02:35:41;0.77;;;0.77;;
78916;SDS011;68315;48.608;11.436;2024-03-29T02:38:07;0.88;;;0.80;;
78916;SDS011;68315;48.608;11.436;2024-03-29T02:40:32;0.90;;;0.90;;
78916;SDS011;68315;48.608;11.436;2024-03-29T02:42:57;0.88;;;0.80;;
78916;SDS011;68315;48.608;11.436;2024-03-29T02:45:22;1.25;;;1.10;;
78916;SDS011;68315;48.608;11.436;2024-03-29T02:47:47;0.90;;;0.90;;
78916;SDS011;68315;48.608;11.436;2024-03-29T02:50:13;0.90;;;0.90;;
78916;SDS011;68315;48.608;11.436;2024-03-29T02:52:40;2.28;;;1.00;;
78916;SDS011;68315;48.608;11.436;2024-03-29T02:55:05;1.70;;;1.00;;
78916;SDS011;68315;48.608;11.436;2024-03-29T02:57:31;1.27;;;1.00;;
78916;SDS011;68315;48.608;11.436;2024-03-29T02:59:56;1.10;;;1.00;;
78916;SDS011;68315;48.608;11.436;2024-03-29T03:02:21;1.10;;;1.00;;
78916;SDS011;68315;48.608;11.436;2024-03-29T03:04:47;0.80;;;0.80;;
78916;SDS011;68315;48.608;11.436;2024-03-29T03:07:12;1.20;;;0.95;;
78916;SDS011;68315;48.608;11.436;2024-03-29T03:09:56;0.90;;;0.90;;
78916;SDS011;68315;48.608;11.436;2024-03-29T03:12:40;1.13;;;1.02;;
78916;SDS011;68315;48.608;11.436;2024-03-29T03:15:05;1.20;;;1.10;;
78916;SDS011;68315;48.608;11.436;2024-03-29T03:17:31;2.55;;;1.13;;
78916;SDS011;68315;48.608;11.436;2024-03-29T03:19:56;1.00;;;1.00;;
78916;SDS011;68315;48.608;11.436;2024-03-29T03:22:22;1.20;;;1.10;;
78916;SDS011;68315;48.608;11.436;2024-03-29T03:24:47;1.60;;;1.00;;
78916;SDS011;68315;48.608;11.436;2024-03-29T03:27:12;1.10;;;1.10;;
78916;SDS011;68315;48.608;11.436;2024-03-29T03:29:38;1.20;;;1.10;;
78916;SDS011;68315;48.608;11.436;2024-03-29T03:32:04;1.52;;;1.10;;
78916;SDS011;68315;48.608;11.436;2024-03-29T03:34:30;1.33;;;1.20;;
78916;SDS011;68315;48.608;11.436;2024-03-29T03:36:55;1.08;;;0.98;;
78916;SDS011;68315;48.608;11.436;2024-03-29T03:39:21;1.20;;;1.10;;
78916;SDS011;68315;48.608;11.436;2024-03-29T03:41:47;1.05;;;1.00;;
78916;SDS011;68315;48.608;11.436;2024-03-29T03:44:12;1.17;;;1.05;;
78916;SDS011;68315;48.608;11.436;2024-03-29T03:46:37;1.85;;;1.10;;
78916;SDS011;68315;48.608;11.436;2024-03-29T03:49:02;2.58;;;0.90;;
78916;SDS011;68315;48.608;11.436;2024-03-29T03:51:28;1.20;;;0.90;;
78916;SDS011;68315;48.608;11.436;2024-03-29T03:53:53;0.93;;;0.93;;
78916;SDS011;68315;48.608;11.436;2024-03-29T03:56:18;0.73;;;0.73;;
78916;SDS011;68315;48.608;11.436;2024-03-29T03:58:44;1.02;;;0.93;;
78916;SDS011;68315;48.608;11.436;2024-03-29T04:01:09;0.75;;;0.75;;
78916;SDS011;68315;48.608;11.436;2024-03-29T04:03:34;0.80;;;0.80;;
78916;SDS011;68315;48.608;11.436;2024-03-29T04:06:03;0.90;;;0.80;;
78916;SDS011;68315;48.608;11.436;2024-03-29T04:08:28;0.90;;;0.90;;
78916;SDS011;68315;48.608;11.436;2024-03-29T04:10:53;1.17;;;1.00;;
78916;SDS011;68315;48.608;11.436;2024-03-29T04:13:19;0.90;;;0.90;;
78916;SDS011;68315;48.608;11.436;2024-03-29T04:15:44;0.90;;;0.90;;
78916;SDS011;68315;48.608;11.436;2024-03-29T04:18:09;1.48;;;0.88;;
78916;SDS011;68315;48.608;11.436;2024-03-29T04:20:34;0.98;;;0.90;;
78916;SDS011;68315;48.608;11.436;2024-03-29T04:23:00;1.42;;;0.88;;
78916;SDS011;68315;48.608;11.436;2024-03-29T04:25:29;0.88;;;0.88;;
78916;SDS011;68315;48.608;11.436;2024-03-29T04:27:54;0.90;;;0.90;;
78916;SDS011;68315;48.608;11.436;2024-03-29T04:30:22;0.77;;;0.77;;
78916;SDS011;68315;48.608;11.436;2024-03-29T04:32:47;1.67;;;1.02;;
78916;SDS011;68315;48.608;11.436;2024-03-29T04:35:13;0.70;;;0.70;;
78916;SDS011;68315;48.608;11.436;2024-03-29T04:37:38;0.93;;;0.82;;
78916;SDS011;68315;48.608;11.436;2024-03-29T04:40:03;0.70;;;0.70;;
78916;SDS011;68315;48.608;11.436;2024-03-29T04:42:29;0.80;;;0.80;;
78916;SDS011;68315;48.608;11.436;2024-03-29T04:44:54;0.98;;;0.90;;
78916;SDS011;68315;48.608;11.436;2024-03-29T04:47:19;0.68;;;0.68;;
78916;SDS011;68315;48.608;11.436;2024-03-29T04:49:45;0.80;;;0.80;;
78916;SDS011;68315;48.608;11.436;2024-03-29T04:52:10;1.45;;;0.85;;
78916;SDS011;68315;48.608;11.436;2024-03-29T04:54:35;0.77;;;0.77;;
78916;SDS011;68315;48.608;11.436;2024-03-29T04:57:01;1.25;;;0.82;;
78916;SDS011;68315;48.608;11.436;2024-03-29T04:59:27;0.98;;;0.68;;
78916;SDS011;68315;48.608;11.436;2024-03-29T05:01:53;0.88;;;0.88;;
78916;SDS011;68315;48.608;11.436;2024-03-29T05:04:20;0.68;;;0.68;;
78916;SDS011;68315;48.608;11.436;2024-03-29T05:06:53;0.80;;;0.80;;
78916;SDS011;68315;48.608;11.436;2024-03-29T05:09:22;0.80;;;0.80;;
78916;SDS011;68315;48.608;11.436;2024-03-29T05:11:48;1.35;;;0.80;;
78916;SDS011;68315;48.608;11.436;2024-03-29T05:14:14;0.80;;;0.80;;
78916;SDS011;68315;48.608;11.436;2024-03-29T05:16:43;0.80;;;0.80;;
78916;SDS011;68315;48.608;11.436;2024-03-29T05:19:08;1.10;;;1.10;;
78916;SDS011;68315;48.608;11.436;2024-03-29T05:21:33;0.95;;;0.82;;
78916;SDS011;68315;48.608;11.436;2024-03-29T05:23:59;0.73;;;0.73;;
78916;SDS011;68315;48.608;11.436;2024-03-29T05:26:24;1.52;;;1.00;;
78916;SDS011;68315;48.608;11.436;2024-03-29T05:28:49;1.15;;;0.70;;
78916;SDS011;68315;48.608;11.436;2024-03-29T05:31:14;0.82;;;0.80;;
78916;SDS011;68315;48.608;11.436;2024-03-29T05:33:40;0.80;;;0.80;;
78916;SDS011;68315;48.608;11.436;2024-03-29T05:36:06;0.80;;;0.80;;
78916;SDS011;68315;48.608;11.436;2024-03-29T05:38:33;2.22;;;0.90;;
78916;SDS011;68315;48.608;11.436;2024-03-29T05:40:58;0.93;;;0.82;;
78916;SDS011;68315;48.608;11.436;2024-03-29T05:43:24;0.65;;;0.65;;
78916;SDS011;68315;48.608;11.436;2024-03-29T05:45:51;0.80;;;0.80;;
78916;SDS011;68315;48.608;11.436;2024-03-29T05:48:17;0.70;;;0.70;;
78916;SDS011;68315;48.608;11.436;2024-03-29T05:50:44;0.77;;;0.77;;
78916;SDS011;68315;48.608;11.436;2024-03-29T05:53:09;0.70;;;0.70;;
78916;SDS011;68315;48.608;11.436;2024-03-29T05:55:35;0.60;;;0.60;;
78916;SDS011;68315;48.608;11.436;2024-03-29T05:58:00;0.70;;;0.70;;
78916;SDS011;68315;48.608;11.436;2024-03-29T06:00:25;0.70;;;0.60;;
78916;SDS011;68315;48.608;11.436;2024-03-29T06:02:51;0.70;;;0.70;;
78916;SDS011;68315;48.608;11.436;2024-03-29T06:05:16;1.13;;;0.93;;
78916;SDS011;68315;48.608;11.436;2024-03-29T06:07:41;4.45;;;2.72;;
78916;SDS011;68315;48.608;11.436;2024-03-29T06:10:06;1.27;;;1.15;;
78916;SDS011;68315;48.608;11.436;2024-03-29T06:12:34;2.92;;;2.63;;
78916;SDS011;68315;48.608;11.436;2024-03-29T06:15:00;1.23;;;1.10;;
78916;SDS011;68315;48.608;11.436;2024-03-29T06:17:43;1.38;;;0.90;;
78916;SDS011;68315;48.608;11.436;2024-03-29T06:20:10;0.70;;;0.70;;
78916;SDS011;68315;48.608;11.436;2024-03-29T06:22:35;0.75;;;0.73;;
78916;SDS011;68315;48.608;11.436;2024-03-29T06:25:01;0.70;;;0.70;;
78916;SDS011;68315;48.608;11.436;2024-03-29T06:27:34;0.80;;;0.80;;
78916;SDS011;68315;48.608;11.436;2024-03-29T06:30:01;0.70;;;0.70;;
78916;SDS011;68315;48.608;11.436;2024-03-29T06:32:27;0.70;;;0.70;;
78916;SDS011;68315;48.608;11.436;2024-03-29T06:34:52;0.63;;;0.63;;
78916;SDS011;68315;48.608;11.436;2024-03-29T06:37:17;0.75;;;0.75;;
78916;SDS011;68315;48.608;11.436;2024-03-29T06:39:44;0.70;;;0.70;;
78916;SDS011;68315;48.608;11.436;2024-03-29T06:42:09;0.70;;;0.70;;
78916;SDS011;68315;48.608;11.436;2024-03-29T06:44:35;2.80;;;0.88;;
78916;SDS011;68315;48.608;11.436;2024-03-29T06:47:01;1.38;;;0.90;;
78916;SDS011;68315;48.608;11.436;2024-03-29T06:49:27;1.92;;;0.90;;
78916;SDS011;68315;48.608;11.436;2024-03-29T06:51:52;1.00;;;1.00;;
78916;SDS011;68315;48.608;11.436;2024-03-29T06:54:18;0.63;;;0.63;;
78916;SDS011;68315;48.608;11.436;2024-03-29T06:56:47;1.23;;;0.77;;
78916;SDS011;68315;48.608;11.436;2024-03-29T06:59:12;0.82;;;0.70;;
78916;SDS011;68315;48.608;11.436;2024-03-29T07:01:37;0.80;;;0.80;;
78916;SDS011;68315;48.608;11.436;2024-03-29T07:04:03;1.13;;;0.70;;
78916;SDS011;68315;48.608;11.436;2024-03-29T07:06:28;0.80;;;0.80;;
78916;SDS011;68315;48.608;11.436;2024-03-29T07:08:53;0.68;;;0.68;;
78916;SDS011;68315;48.608;11.436;2024-03-29T07:11:18;0.85;;;0.80;;
78916;SDS011;68315;48.608;11.436;2024-03-29T07:13:44;0.95;;;0.63;;
78916;SDS011;68315;48.608;11.436;2024-03-29T07:16:12;0.60;;;0.60;;
78916;SDS011;68315;48.608;11.436;2024-03-29T07:18:37;0.70;;;0.70;;
78916;SDS011;68315;48.608;11.436;2024-03-29T07:21:03;0.80;;;0.80;;
78916;SDS011;68315;48.608;11.436;2024-03-29T07:23:28;0.80;;;0.70;;
78916;SDS011;68315;48.608;11.436;2024-03-29T07:25:57;0.93;;;0.90;;
78916;SDS011;68315;48.608;11.436;2024-03-29T07:28:24;1.08;;;0.75;;
78916;SDS011;68315;48.608;11.436;2024-03-29T07:30:49;1.90;;;0.93;;
78916;SDS011;68315;48.608;11.436;2024-03-29T07:33:15;0.57;;;0.57;;
78916;SDS011;68315;48.608;11.436;2024-03-29T07:35:40;0.77;;;0.77;;
78916;SDS011;68315;48.608;11.436;2024-03-29T07:38:06;0.70;;;0.70;;
78916;SDS011;68315;48.608;11.436;2024-03-29T07:40:32;0.50;;;0.50;;
78916;SDS011;68315;48.608;11.436;2024-03-29T07:42:57;0.70;;;0.70;;
78916;SDS011;68315;48.608;11.436;2024-03-29T07:45:22;0.60;;;0.60;;
78916;SDS011;68315;48.608;11.436;2024-03-29T07:47:48;1.20;;;0.80;;
78916;SDS011;68315;48.608;11.436;2024-03-29T07:50:17;0.88;;;0.70;;
78916;SDS011;68315;48.608;11.436;2024-03-29T07:52:44;0.93;;;0.82;;
78916;SDS011;68315;48.608;11.436;2024-03-29T07:55:10;1.10;;;0.70;;
78916;SDS011;68315;48.608;11.436;2024-03-29T07:57:35;1.15;;;0.80;;
78916;SDS011;68315;48.608;11.436;2024-03-29T08:00:00;1.00;;;0.80;;
78916;SDS011;68315;48.608;11.436;2024-03-29T08:02:26;1.33;;;0.70;;
78916;SDS011;68315;48.608;11.436;2024-03-29T08:04:54;0.85;;;0.80;;
78916;SDS011;68315;48.608;11.436;2024-03-29T08:07:19;0.80;;;0.80;;
78916;SDS011;68315;48.608;11.436;2024-03-29T08:09:45;0.70;;;0.70;;
78916;SDS011;68315;48.608;11.436;2024-03-29T08:12:10;1.90;;;0.70;;
78916;SDS011;68315;48.608;11.436;2024-03-29T08:14:35;1.13;;;0.70;;
78916;SDS011;68315;48.608;11.436;2024-03-29T08:17:00;0.55;;;0.55;;
78916;SDS011;68315;48.608;11.436;2024-03-29T08:19:29;1.48;;;0.68;;
78916;SDS011;68315;48.608;11.436;2024-03-29T08:21:55;0.60;;;0.60;;
78916;SDS011;68315;48.608;11.436;2024-03-29T08:24:20;0.73;;;0.50;;
78916;SDS011;68315;48.608;11.436;2024-03-29T08:26:45;0.50;;;0.50;;
78916;SDS011;68315;48.608;11.436;2024-03-29T08:29:10;0.55;;;0.55;;
78916;SDS011;68315;48.608;11.436;2024-03-29T08:31:36;4.43;;;1.80;;
78916;SDS011;68315;48.608;11.436;2024-03-29T08:34:01;0.52;;;0.52;;
78916;SDS011;68315;48.608;11.436;2024-03-29T08:36:26;0.65;;;0.55;;
78916;SDS011;68315;48.608;11.436;2024-03-29T08:38:52;0.60;;;0.60;;
78916;SDS011;68315;48.608;11.436;2024-03-29T08:41:17;0.60;;;0.60;;
78916;SDS011;68315;48.608;11.436;2024-03-29T08:43:42;0.70;;;0.60;;
78916;SDS011;68315;48.608;11.436;2024-03-29T08:46:07;0.52;;;0.52;;
78916;SDS011;68315;48.608;11.436;2024-03-29T08:48:34;0.60;;;0.60;;
78916;SDS011;68315;48.608;11.436;2024-03-29T08:50:59;0.95;;;0.40;;
78916;SDS011;68315;48.608;11.436;2024-03-29T08:53:24;0.50;;;0.50;;
78916;SDS011;68315;48.608;11.436;2024-03-29T08:55:52;0.40;;;0.40;;
78916;SDS011;68315;48.608;11.436;2024-03-29T08:58:17;0.57;;;0.52;;
78916;SDS011;68315;48.608;11.436;2024-03-29T09:00:51;0.95;;;0.50;;
78916;SDS011;68315;48.608;11.436;2024-03-29T09:03:17;0.50;;;0.50;;
78916;SDS011;68315;48.608;11.436;2024-03-29T09:05:42;0.50;;;0.50;;
78916;SDS011;68315;48.608;11.436;2024-03-29T09:08:08;0.50;;;0.50;;
78916;SDS011;68315;48.608;11.436;2024-03-29T09:10:33;1.13;;;0.60;;
78916;SDS011;68315;48.608;11.436;2024-03-29T09:12:58;0.50;;;0.50;;
78916;SDS011;68315;48.608;11.436;2024-03-29T09:15:23;0.50;;;0.50;;
78916;SDS011;68315;48.608;11.436;2024-03-29T09:17:49;0.60;;;0.60;;
78916;SDS011;68315;48.608;11.436;2024-03-29T09:20:14;0.50;;;0.50;;
78916;SDS011;68315;48.608;11.436;2024-03-29T09:22:39;0.60;;;0.60;;
78916;SDS011;68315;48.608;11.436;2024-03-29T09:25:05;0.60;;;0.60;;
78916;SDS011;68315;48.608;11.436;2024-03-29T09:27:30;0.50;;;0.50;;
78916;SDS011;68315;48.608;11.436;2024-03-29T09:29:59;0.65;;;0.65;;
78916;SDS011;68315;48.608;11.436;2024-03-29T09:32:24;0.60;;;0.60;;
78916;SDS011;68315;48.608;11.436;2024-03-29T09:34:49;0.80;;;0.80;;
78916;SDS011;68315;48.608;11.436;2024-03-29T09:37:15;1.08;;;0.70;;
78916;SDS011;68315;48.608;11.436;2024-03-29T09:39:40;0.77;;;0.77;;
78916;SDS011;68315;48.608;11.436;2024-03-29T09:42:05;0.63;;;0.63;;
78916;SDS011;68315;48.608;11.436;2024-03-29T09:44:32;0.70;;;0.70;;
78916;SDS011;68315;48.608;11.436;2024-03-29T09:47:02;0.70;;;0.70;;
78916;SDS011;68315;48.608;11.436;2024-03-29T09:49:28;0.73;;;0.70;;
78916;SDS011;68315;48.608;11.436;2024-03-29T09:51:55;2.58;;;0.73;;
78916;SDS011;68315;48.608;11.436;2024-03-29T09:54:21;0.85;;;0.80;;
78916;SDS011;68315;48.608;11.436;2024-03-29T09:56:46;1.63;;;0.77;;
78916;SDS011;68315;48.608;11.436;2024-03-29T09:59:12;1.77;;;0.80;;
78916;SDS011;68315;48.608;11.436;2024-03-29T10:01:37;1.75;;;0.80;;
78916;SDS011;68315;48.608;11.436;2024-03-29T10:04:03;0.80;;;0.70;;
78916;SDS011;68315;48.608;11.436;2024-03-29T10:06:30;0.70;;;0.70;;
78916;SDS011;68315;48.608;11.436;2024-03-29T10:08:58;0.73;;;0.57;;
78916;SDS011;68315;48.608;11.436;2024-03-29T10:11:25;1.20;;;0.50;;
78916;SDS011;68315;48.608;11.436;2024-03-29T10:13:50;0.70;;;0.70;;
78916;SDS011;68315;48.608;11.436;2024-03-29T10:16:18;1.30;;;0.60;;
78916;SDS011;68315;48.608;11.436;2024-03-29T10:18:46;1.48;;;0.77;;
78916;SDS011;68315;48.608;11.436;2024-03-29T10:21:12;0.73;;;0.65;;
78916;SDS011;68315;48.608;11.436;2024-03-29T10:23:38;0.65;;;0.60;;
78916;SDS011;68315;48.608;11.436;2024-03-29T10:26:05;1.20;;;0.70;;
78916;SDS011;68315;48.608;11.436;2024-03-29T10:28:31;0.57;;;0.55;;
78916;SDS011;68315;48.608;11.436;2024-03-29T10:30:58;0.70;;;0.70;;
78916;SDS011;68315;48.608;11.436;2024-03-29T10:33:27;1.58;;;0.80;;
78916;SDS011;68315;48.608;11.436;2024-03-29T10:35:54;0.77;;;0.65;;
78916;SDS011;68315;48.608;11.436;2024-03-29T10:38:21;0.60;;;0.55;;
78916;SDS011;68315;48.608;11.436;2024-03-29T10:40:47;1.98;;;0.80;;
78916;SDS011;68315;48.608;11.436;2024-03-29T10:43:13;1.30;;;0.70;;
78916;SDS011;68315;48.608;11.436;2024-03-29T10:45:41;1.58;;;0.93;;
78916;SDS011;68315;48.608;11.436;2024-03-29T10:48:08;1.20;;;0.75;;
78916;SDS011;68315;48.608;11.436;2024-03-29T10:50:35;1.10;;;0.90;;
78916;SDS011;68315;48.608;11.436;2024-03-29T10:53:01;1.10;;;0.88;;
78916;SDS011;68315;48.608;11.436;2024-03-29T10:55:28;0.70;;;0.70;;
78916;SDS011;68315;48.608;11.436;2024-03-29T10:57:55;1.08;;;0.70;;
78916;SDS011;68315;48.608;11.436;2024-03-29T11:00:23;1.55;;;0.88;;
78916;SDS011;68315;48.608;11.436;2024-03-29T11:05:34;0.98;;;0.70;;
78916;SDS011;68315;48.608;11.436;2024-03-29T11:08:01;1.63;;;0.60;;
78916;SDS011;68315;48.608;11.436;2024-03-29T11:10:35;0.80;;;0.70;;
78916;SDS011;68315;48.608;11.436;2024-03-29T11:16:07;0.82;;;0.70;;
78916;SDS011;68315;48.608;11.436;2024-03-29T11:18:32;0.90;;;0.80;;
78916;SDS011;68315;48.608;11.436;2024-03-29T11:21:00;1.45;;;0.70;;
78916;SDS011;68315;48.608;11.436;2024-03-29T11:23:27;0.70;;;0.60;;
78916;SDS011;68315;48.608;11.436;2024-03-29T11:25:53;0.63;;;0.63;;
78916;SDS011;68315;48.608;11.436;2024-03-29T11:28:26;0.70;;;0.70;;
78916;SDS011;68315;48.608;11.436;2024-03-29T11:30:58;0.80;;;0.80;;
78916;SDS011;68315;48.608;11.436;2024-03-29T11:35:54;0.85;;;0.70;;
78916;SDS011;68315;48.608;11.436;2024-03-29T11:38:20;0.73;;;0.60;;
78916;SDS011;68315;48.608;11.436;2024-03-29T11:43:48;0.73;;;0.60;;
78916;SDS011;68315;48.608;11.436;2024-03-29T11:46:17;0.80;;;0.63;;
78916;SDS011;68315;48.608;11.436;2024-03-29T11:48:43;0.82;;;0.80;;
78916;SDS011;68315;48.608;11.436;2024-03-29T11:51:12;1.00;;;0.90;;
78916;SDS011;68315;48.608;11.436;2024-03-29T11:53:39;2.38;;;0.90;;
78916;SDS011;68315;48.608;11.436;2024-03-29T11:56:08;1.25;;;0.90;;
78916;SDS011;68315;48.608;11.436;2024-03-29T11:58:34;1.38;;;0.88;;
78916;SDS011;68315;48.608;11.436;2024-03-29T12:01:00;1.98;;;0.80;;
78916;SDS011;68315;48.608;11.436;2024-03-29T12:03:27;0.70;;;0.68;;
78916;SDS011;68315;48.608;11.436;2024-03-29T12:05:55;1.02;;;0.80;;
78916;SDS011;68315;48.608;11.436;2024-03-29T12:08:23;1.83;;;0.50;;
78916;SDS011;68315;48.608;11.436;2024-03-29T12:10:53;0.95;;;0.70;;
78916;SDS011;68315;48.608;11.436;2024-03-29T12:13:18;0.93;;;0.70;;
78916;SDS011;68315;48.608;11.436;2024-03-29T12:15:44;0.77;;;0.77;;
78916;SDS011;68315;48.608;11.436;2024-03-29T12:18:12;1.05;;;0.93;;
78916;SDS011;68315;48.608;11.436;2024-03-29T12:20:38;2.20;;;0.90;;
78916;SDS011;68315;48.608;11.436;2024-03-29T12:23:05;1.25;;;0.90;;
78916;SDS011;68315;48.608;11.436;2024-03-29T12:25:32;1.13;;;0.70;;
78916;SDS011;68315;48.608;11.436;2024-03-29T12:27:58;1.35;;;0.90;;
78916;SDS011;68315;48.608;11.436;2024-03-29T12:30:24;1.50;;;0.90;;
78916;SDS011;68315;48.608;11.436;2024-03-29T12:33:03;1.02;;;0.80;;
78916;SDS011;68315;48.608;11.436;2024-03-29T12:35:31;0.90;;;0.65;;
78916;SDS011;68315;48.608;11.436;2024-03-29T12:37:58;1.65;;;0.80;;
78916;SDS011;68315;48.608;11.436;2024-03-29T12:40:25;1.17;;;0.85;;
78916;SDS011;68315;48.608;11.436;2024-03-29T12:42:52;1.60;;;0.75;;
78916;SDS011;68315;48.608;11.436;2024-03-29T12:45:18;0.77;;;0.70;;
78916;SDS011;68315;48.608;11.436;2024-03-29T12:47:44;1.20;;;0.88;;
78916;SDS011;68315;48.608;11.436;2024-03-29T12:50:12;1.15;;;0.90;;
78916;SDS011;68315;48.608;11.436;2024-03-29T12:52:39;1.13;;;0.90;;
78916;SDS011;68315;48.608;11.436;2024-03-29T12:55:06;1.70;;;0.80;;
78916;SDS011;68315;48.608;11.436;2024-03-29T12:57:33;2.35;;;0.75;;
78916;SDS011;68315;48.608;11.436;2024-03-29T12:59:59;1.23;;;0.60;;
78916;SDS011;68315;48.608;11.436;2024-03-29T13:02:24;2.35;;;0.63;;
78916;SDS011;68315;48.608;11.436;2024-03-29T13:04:50;0.80;;;0.70;;
78916;SDS011;68315;48.608;11.436;2024-03-29T13:07:16;1.55;;;0.88;;
78916;SDS011;68315;48.608;11.436;2024-03-29T13:09:41;0.98;;;0.88;;
78916;SDS011;68315;48.608;11.436;2024-03-29T13:12:06;1.07;;;0.80;;
78916;SDS011;68315;48.608;11.436;2024-03-29T13:14:32;1.10;;;0.60;;
78916;SDS011;68315;48.608;11.436;2024-03-29T13:16:58;0.73;;;0.60;;
78916;SDS011;68315;48.608;11.436;2024-03-29T13:19:24;2.70;;;0.98;;
78916;SDS011;68315;48.608;11.436;2024-03-29T13:21:49;1.07;;;0.67;;
78916;SDS011;68315;48.608;11.436;2024-03-29T13:24:14;1.10;;;0.70;;
78916;SDS011;68315;48.608;11.436;2024-03-29T13:26:39;1.65;;;0.88;;
78916;SDS011;68315;48.608;11.436;2024-03-29T13:29:05;1.00;;;0.70;;
78916;SDS011;68315;48.608;11.436;2024-03-29T13:31:30;0.85;;;0.60;;
78916;SDS011;68315;48.608;11.436;2024-03-29T13:33:56;2.05;;;0.77;;
78916;SDS011;68315;48.608;11.436;2024-03-29T13:36:28;0.88;;;0.80;;
78916;SDS011;68315;48.608;11.436;2024-03-29T13:38:55;0.98;;;0.80;;
78916;SDS011;68315;48.608;11.436;2024-03-29T13:41:20;1.20;;;0.80;;
78916;SDS011;68315;48.608;11.436;2024-03-29T13:43:45;0.87;;;0.60;;
78916;SDS011;68315;48.608;11.436;2024-03-29T13:46:11;1.08;;;0.63;;
78916;SDS011;68315;48.608;11.436;2024-03-29T13:48:36;3.25;;;0.88;;
78916;SDS011;68315;48.608;11.436;2024-03-29T13:51:02;1.05;;;0.50;;
78916;SDS011;68315;48.608;11.436;2024-03-29T13:53:27;0.82;;;0.55;;
78916;SDS011;68315;48.608;11.436;2024-03-29T13:55:54;1.25;;;0.80;;
78916;SDS011;68315;48.608;11.436;2024-03-29T13:58:19;1.17;;;0.70;;
78916;SDS011;68315;48.608;11.436;2024-03-29T14:00:45;1.17;;;0.57;;
78916;SDS011;68315;48.608;11.436;2024-03-29T14:03:10;0.60;;;0.60;;
78916;SDS011;68315;48.608;11.436;2024-03-29T14:05:35;1.40;;;0.80;;
78916;SDS011;68315;48.608;11.436;2024-03-29T14:08:01;1.00;;;0.75;;
78916;SDS011;68315;48.608;11.436;2024-03-29T14:10:27;1.85;;;1.10;;
78916;SDS011;68315;48.608;11.436;2024-03-29T14:12:52;1.87;;;1.00;;
78916;SDS011;68315;48.608;11.436;2024-03-29T14:15:19;1.20;;;0.73;;
78916;SDS011;68315;48.608;11.436;2024-03-29T14:17:44;0.98;;;0.75;;
78916;SDS011;68315;48.608;11.436;2024-03-29T14:20:10;0.87;;;0.70;;
78916;SDS011;68315;48.608;11.436;2024-03-29T14:22:35;1.95;;;1.00;;
78916;SDS011;68315;48.608;11.436;2024-03-29T14:25:02;0.90;;;0.68;;
78916;SDS011;68315;48.608;11.436;2024-03-29T14:27:28;1.05;;;0.60;;
78916;SDS011;68315;48.608;11.436;2024-03-29T14:29:53;0.90;;;0.63;;
78916;SDS011;68315;48.608;11.436;2024-03-29T14:32:21;1.33;;;0.70;;
78916;SDS011;68315;48.608;11.436;2024-03-29T14:34:47;1.17;;;0.75;;
78916;SDS011;68315;48.608;11.436;2024-03-29T14:37:12;0.68;;;0.50;;